createdAt,value
2022-10-19T00:00:28.450Z,7.33
2022-10-19T00:03:31.269Z,6.17
2022-10-19T00:06:35.589Z,5.18
2022-10-19T00:09:39.875Z,8.77
2022-10-19T00:12:42.577Z,5.05
2022-10-19T00:15:46.319Z,6.83
2022-10-19T00:18:49.017Z,6.07
2022-10-19T00:21:52.111Z,6.80
2022-10-19T00:24:57.612Z,7.38
2022-10-19T00:28:00.165Z,4.38
2022-10-19T00:31:04.867Z,5.17
2022-10-19T00:34:07.659Z,5.30
2022-10-19T00:37:10.260Z,5.55
2022-10-19T00:40:14.576Z,4.72
2022-10-19T00:43:18.909Z,7.10
2022-10-19T00:46:21.680Z,6.70
2022-10-19T00:49:27.981Z,5.23
2022-10-19T00:52:31.457Z,4.65
2022-10-19T00:55:36.124Z,4.30
2022-10-19T00:58:39.402Z,6.05
2022-10-19T01:01:45.282Z,4.63
2022-10-19T01:04:51.732Z,5.27
2022-10-19T01:07:55.300Z,4.40
2022-10-19T01:11:14.375Z,6.25
2022-10-19T01:14:34.763Z,4.78
2022-10-19T01:17:49.203Z,4.93
2022-10-19T01:21:09.427Z,4.53
2022-10-19T01:24:43.731Z,5.43
2022-10-19T01:28:02.414Z,4.53
2022-10-19T01:31:14.176Z,6.53
2022-10-19T01:34:24.239Z,7.97
2022-10-19T01:37:35.360Z,6.50
2022-10-19T01:40:46.096Z,7.05
2022-10-19T01:43:58.284Z,6.57
2022-10-19T01:47:07.878Z,5.07
2022-10-19T01:50:17.009Z,5.30
2022-10-19T01:53:21.718Z,6.20
2022-10-19T01:56:28.198Z,4.90
2022-10-19T01:59:32.786Z,4.72
2022-10-19T02:02:39.962Z,4.30
2022-10-19T02:05:44.049Z,4.90
2022-10-19T02:08:49.222Z,4.13
2022-10-19T02:11:57.249Z,6.40
2022-10-19T02:15:04.158Z,4.55
2022-10-19T02:18:09.297Z,4.40
2022-10-19T02:21:12.133Z,4.47
2022-10-19T02:24:14.652Z,5.40
2022-10-19T02:27:19.100Z,5.07
2022-10-19T02:30:22.438Z,4.03
2022-10-19T02:33:26.970Z,4.35
2022-10-19T02:36:29.904Z,6.80
2022-10-19T02:39:32.926Z,5.70
2022-10-19T02:42:40.733Z,6.78
2022-10-19T02:45:48.939Z,5.10
2022-10-19T02:48:53.357Z,4.22
2022-10-19T02:51:59.202Z,4.17
2022-10-19T02:55:01.739Z,6.33
2022-10-19T02:58:04.440Z,4.57
2022-10-19T03:01:07.309Z,6.22
2022-10-19T03:04:11.464Z,5.22
2022-10-19T03:07:16.375Z,3.40
2022-10-19T03:10:18.945Z,4.87
2022-10-19T03:13:21.646Z,5.93
2022-10-19T03:16:24.188Z,5.38
2022-10-19T03:19:28.366Z,5.70
2022-10-19T03:22:31.068Z,3.63
2022-10-19T03:25:33.620Z,4.37
2022-10-19T03:28:36.345Z,4.10
2022-10-19T03:31:38.914Z,3.75
2022-10-19T03:34:42.943Z,3.45
2022-10-19T03:37:45.719Z,3.50
2022-10-19T03:40:48.270Z,3.53
2022-10-19T03:43:51.020Z,6.55
2022-10-19T03:46:53.904Z,3.45
2022-10-19T03:49:57.855Z,4.45
2022-10-19T03:53:00.479Z,3.77
2022-10-19T03:56:05.094Z,3.15
2022-10-19T03:59:08.506Z,5.15
2022-10-19T04:02:11.069Z,5.07
2022-10-19T04:05:15.118Z,4.63
2022-10-19T04:08:17.850Z,6.13
2022-10-19T04:11:23.308Z,4.18
2022-10-19T04:14:32.149Z,3.70
2022-10-19T04:17:35.785Z,4.57
2022-10-19T04:20:42.846Z,3.38
2022-10-19T04:23:45.524Z,3.83
2022-10-19T04:26:50.122Z,3.08
2022-10-19T04:29:52.794Z,2.40
2022-10-19T04:32:55.328Z,3.23
2022-10-19T04:36:00.911Z,2.13
2022-10-19T04:39:03.695Z,2.67
2022-10-19T04:42:06.283Z,2.83
2022-10-19T04:45:09.722Z,3.23
2022-10-19T04:48:15.004Z,4.30
2022-10-19T04:51:19.939Z,1.70
2022-10-19T04:54:22.736Z,2.88
2022-10-19T04:57:25.287Z,2.17
2022-10-19T05:00:27.983Z,1.70
2022-10-19T05:03:30.683Z,3.20
2022-10-19T05:06:34.635Z,3.97
2022-10-19T05:09:40.408Z,4.07
2022-10-19T05:12:42.996Z,3.72
2022-10-19T05:15:45.608Z,2.00
2022-10-19T05:18:50.150Z,4.60
2022-10-19T05:21:54.092Z,3.83
2022-10-19T05:24:58.176Z,3.47
2022-10-19T05:28:00.942Z,3.72
2022-10-19T05:31:08.831Z,1.60
2022-10-19T05:34:11.467Z,4.97
2022-10-19T05:37:17.210Z,3.90
2022-10-19T05:40:19.853Z,3.92
2022-10-19T05:43:22.435Z,3.40
2022-10-19T05:46:26.613Z,2.93
2022-10-19T05:49:29.453Z,2.83
2022-10-19T05:52:33.393Z,3.17
2022-10-19T05:55:36.704Z,1.77
2022-10-19T05:58:39.491Z,4.95
2022-10-19T06:01:42.283Z,2.97
2022-10-19T06:04:44.994Z,3.37
2022-10-19T06:07:48.953Z,3.10
2022-10-19T06:10:51.859Z,3.42
2022-10-19T06:13:56.308Z,2.78
2022-10-19T06:16:58.903Z,2.97
2022-10-19T06:20:01.439Z,4.67
2022-10-19T06:23:06.200Z,3.40
2022-10-19T06:26:11.000Z,3.25
2022-10-19T06:29:13.596Z,4.18
2022-10-19T06:32:16.525Z,3.00
2022-10-19T06:35:19.461Z,5.03
2022-10-19T06:38:23.399Z,3.60
2022-10-19T06:41:26.100Z,7.72
2022-10-19T06:44:28.693Z,5.75
2022-10-19T06:47:33.277Z,4.80
2022-10-19T06:50:36.479Z,2.83
2022-10-19T06:53:40.393Z,4.57
2022-10-19T06:56:42.983Z,4.05
2022-10-19T06:59:46.530Z,3.00
2022-10-19T07:02:50.682Z,3.90
2022-10-19T07:05:57.154Z,4.17
2022-10-19T07:09:02.726Z,5.65
2022-10-19T07:12:05.478Z,2.33
2022-10-19T07:15:08.938Z,3.78
2022-10-19T07:18:11.520Z,2.43
2022-10-19T07:21:16.042Z,5.03
2022-10-19T07:24:20.783Z,4.05
2022-10-19T07:27:23.395Z,3.20
2022-10-19T07:30:26.011Z,3.45
2022-10-19T07:33:28.912Z,4.17
2022-10-19T07:36:33.242Z,3.30
2022-10-19T07:39:37.669Z,3.67
2022-10-19T07:42:40.376Z,3.95
2022-10-19T07:45:42.947Z,3.58
2022-10-19T07:48:46.211Z,6.03
2022-10-19T07:51:48.885Z,3.77
2022-10-19T07:54:53.397Z,3.20
2022-10-19T07:57:56.243Z,2.28
2022-10-19T08:01:01.305Z,2.58
2022-10-19T08:07:26.575Z,2.63
2022-10-19T08:10:30.549Z,2.35
2022-10-19T08:13:33.107Z,4.03
2022-10-19T08:16:40.186Z,1.50
2022-10-19T08:19:43.583Z,3.40
2022-10-19T08:22:46.816Z,2.23
2022-10-19T08:25:51.089Z,3.70
2022-10-19T08:28:53.662Z,2.00
2022-10-19T08:31:56.334Z,1.40
2022-10-19T08:34:58.922Z,2.70
2022-10-19T08:38:02.861Z,2.97
2022-10-19T08:41:22.478Z,3.28
2022-10-19T08:44:41.587Z,2.15
2022-10-19T08:47:59.174Z,3.53
2022-10-19T08:51:02.712Z,3.87
2022-10-19T08:54:15.687Z,3.22
2022-10-19T08:57:31.147Z,2.58
2022-10-19T09:00:42.939Z,4.47
2022-10-19T09:03:55.558Z,2.58
2022-10-19T09:07:14.861Z,3.22
2022-10-19T09:10:22.608Z,2.63
2022-10-19T09:13:47.108Z,5.50
2022-10-19T09:17:07.625Z,3.63
2022-10-19T09:20:17.340Z,5.00
2022-10-19T09:23:26.170Z,2.33
2022-10-19T09:26:31.756Z,3.47
2022-10-19T09:29:41.246Z,2.92
2022-10-19T09:32:44.103Z,5.87
2022-10-19T09:35:48.184Z,2.22
2022-10-19T09:38:52.033Z,4.07
2022-10-19T09:41:56.496Z,2.30
2022-10-19T09:45:03.409Z,2.80
2022-10-19T09:48:18.076Z,2.53
2022-10-19T09:51:22.005Z,3.63
2022-10-19T09:54:28.115Z,2.45
2022-10-19T09:57:31.071Z,2.97
2022-10-19T10:00:38.880Z,7.38
2022-10-19T10:03:43.373Z,4.60
2022-10-19T10:06:49.137Z,2.92
2022-10-19T10:09:53.985Z,5.68
2022-10-19T10:12:58.752Z,3.70
2022-10-19T10:16:04.941Z,3.50
2022-10-19T10:19:09.971Z,5.32
2022-10-19T10:22:26.116Z,2.55
2022-10-19T10:25:31.144Z,4.90
2022-10-19T10:28:33.837Z,2.43
2022-10-19T10:31:37.935Z,1.38
2022-10-19T10:34:51.824Z,3.42
2022-10-19T10:38:07.188Z,4.40
2022-10-19T10:41:15.172Z,1.90
2022-10-19T10:44:22.165Z,2.27
2022-10-19T10:47:27.475Z,2.17
2022-10-19T10:50:35.715Z,2.33
2022-10-19T10:53:40.467Z,1.90
2022-10-19T10:56:44.387Z,2.10
2022-10-19T10:59:56.370Z,1.40
2022-10-19T11:03:08.977Z,1.27
2022-10-19T11:06:13.497Z,3.85
2022-10-19T11:09:25.536Z,2.22
2022-10-19T11:12:35.467Z,1.85
2022-10-19T11:15:45.527Z,1.50
2022-10-19T11:18:54.601Z,3.40
2022-10-19T11:22:03.197Z,2.22
2022-10-19T11:25:24.907Z,1.27
2022-10-19T11:28:46.390Z,3.00
2022-10-19T11:31:52.457Z,2.77
2022-10-19T11:35:12.407Z,1.40
2022-10-19T11:38:32.297Z,1.83
2022-10-19T11:41:39.750Z,2.13
2022-10-19T11:44:56.105Z,2.33
2022-10-19T11:48:15.945Z,1.50
2022-10-19T11:51:26.632Z,1.98
2022-10-19T11:54:43.987Z,2.40
2022-10-19T11:57:52.478Z,3.08
2022-10-19T12:01:09.180Z,4.05
2022-10-19T12:04:24.832Z,1.77
2022-10-19T12:07:45.269Z,3.60
2022-10-19T12:10:57.751Z,2.70
2022-10-19T12:14:04.128Z,1.58
2022-10-19T12:17:10.391Z,3.03
2022-10-19T12:20:22.055Z,1.57
2022-10-19T12:23:33.097Z,2.78
2022-10-19T12:26:37.737Z,1.55
2022-10-19T12:29:44.957Z,2.72
2022-10-19T12:33:02.879Z,2.60
2022-10-19T12:36:17.095Z,5.00
2022-10-19T12:39:26.383Z,5.70
2022-10-19T12:42:32.875Z,5.50
2022-10-19T12:45:39.331Z,2.50
2022-10-19T12:48:41.891Z,3.22
2022-10-19T12:51:47.959Z,2.20
2022-10-19T12:54:52.086Z,2.55
2022-10-19T12:58:01.528Z,3.88
2022-10-19T13:01:06.882Z,1.48
2022-10-19T13:04:12.964Z,1.70
2022-10-19T13:07:19.245Z,2.50
2022-10-19T13:10:26.734Z,1.95
2022-10-19T13:13:54.438Z,1.73
2022-10-19T13:16:59.405Z,1.93
2022-10-19T13:20:35.556Z,2.20
2022-10-19T13:23:41.970Z,2.88
2022-10-19T13:26:46.284Z,3.40
2022-10-19T13:29:48.858Z,3.90
2022-10-19T13:32:51.598Z,1.57
2022-10-19T13:36:07.931Z,2.75
2022-10-19T13:39:16.154Z,1.50
2022-10-19T13:42:28.881Z,2.88
2022-10-19T13:45:31.674Z,2.70
2022-10-19T13:48:53.281Z,2.83
2022-10-19T13:52:23.037Z,2.05
2022-10-19T13:55:52.135Z,3.22
2022-10-19T13:59:32.777Z,2.00
2022-10-19T14:02:59.447Z,3.65
2022-10-19T14:06:23.539Z,2.80
2022-10-19T14:09:49.036Z,2.22
2022-10-19T14:12:52.866Z,2.05
2022-10-19T14:16:00.558Z,2.30
2022-10-19T14:19:03.267Z,1.95
2022-10-19T14:22:20.392Z,2.30
2022-10-19T14:25:25.458Z,2.65
2022-10-19T14:28:29.560Z,1.73
2022-10-19T14:31:37.086Z,2.42
2022-10-19T14:34:41.540Z,1.52
2022-10-19T14:37:44.906Z,1.40
2022-10-19T14:40:47.535Z,2.60
2022-10-19T14:43:50.271Z,3.63
2022-10-19T14:46:54.874Z,3.08
2022-10-19T14:49:58.358Z,2.67
2022-10-19T14:53:09.943Z,2.73
2022-10-19T14:56:19.688Z,1.98
2022-10-19T14:59:27.924Z,2.40
2022-10-19T15:02:36.578Z,1.83
2022-10-19T15:05:47.212Z,1.80
2022-10-19T15:12:06.026Z,1.75
2022-10-19T15:15:11.276Z,2.90
2022-10-19T15:18:43.388Z,2.30
2022-10-19T15:21:40.593Z,1.73
2022-10-19T15:25:00.697Z,1.73
2022-10-19T15:28:33.919Z,3.13
2022-10-19T15:31:38.804Z,1.67
2022-10-19T15:34:44.925Z,1.92
2022-10-19T15:37:50.593Z,2.78
2022-10-19T15:40:58.309Z,1.70
2022-10-19T15:44:04.206Z,2.50
2022-10-19T15:47:23.553Z,1.52
2022-10-19T15:50:38.109Z,1.20
2022-10-19T15:53:40.795Z,2.05
2022-10-19T15:56:44.132Z,3.27
2022-10-19T15:59:48.659Z,2.63
2022-10-19T16:02:51.382Z,1.38
2022-10-19T16:05:56.149Z,1.73
2022-10-19T16:08:59.250Z,1.85
2022-10-19T16:12:01.900Z,2.40
2022-10-19T16:15:04.920Z,2.83
2022-10-19T16:18:07.581Z,2.58
2022-10-19T16:21:11.565Z,2.65
2022-10-19T16:24:14.147Z,2.60
2022-10-19T16:27:17.169Z,2.23
2022-10-19T16:30:20.163Z,2.97
2022-10-19T16:33:23.472Z,3.83
2022-10-19T16:36:27.555Z,2.20
2022-10-19T16:39:30.326Z,3.88
2022-10-19T16:42:34.953Z,2.67
2022-10-19T16:45:37.787Z,2.67
2022-10-19T16:48:40.388Z,2.80
2022-10-19T16:51:44.346Z,3.67
2022-10-19T16:54:47.055Z,3.90
2022-10-19T16:57:49.594Z,2.77
2022-10-19T17:00:52.305Z,1.95
2022-10-19T17:03:55.747Z,2.75
2022-10-19T17:06:59.727Z,2.38
2022-10-19T17:10:02.472Z,2.50
2022-10-19T17:13:05.151Z,2.87
2022-10-19T17:16:08.576Z,2.63
2022-10-19T17:19:11.989Z,3.72
2022-10-19T17:22:16.043Z,3.47
2022-10-19T17:25:18.724Z,3.13
2022-10-19T17:28:24.119Z,2.30
2022-10-19T17:31:29.902Z,3.30
2022-10-19T17:34:32.803Z,4.65
2022-10-19T17:37:37.101Z,4.68
2022-10-19T17:40:39.970Z,5.30
2022-10-19T17:43:44.845Z,5.47
2022-10-19T17:46:47.619Z,5.45
2022-10-19T17:49:50.312Z,5.00
2022-10-19T17:52:54.233Z,3.50
2022-10-19T17:55:57.230Z,4.63
2022-10-19T17:59:02.407Z,3.67
2022-10-19T18:02:07.439Z,3.70
2022-10-19T18:05:10.499Z,3.50
2022-10-19T18:08:14.391Z,4.82
2022-10-19T18:11:19.684Z,6.45
2022-10-19T18:14:22.391Z,8.93
2022-10-19T18:17:27.668Z,8.70
2022-10-19T18:20:30.688Z,9.10
2022-10-19T18:23:34.643Z,8.75
2022-10-19T18:26:37.320Z,10.30
2022-10-19T18:29:39.861Z,9.60
2022-10-19T18:32:42.432Z,9.60
2022-10-19T18:35:44.981Z,10.48
2022-10-19T18:38:52.749Z,11.57
2022-10-19T18:41:55.575Z,12.77
2022-10-19T18:44:58.322Z,12.13
2022-10-19T18:48:00.919Z,10.13
2022-10-19T18:51:05.973Z,10.15
2022-10-19T18:54:11.931Z,9.25
2022-10-19T18:57:14.613Z,8.55
2022-10-19T19:00:17.281Z,7.05
2022-10-19T19:03:20.542Z,8.53
2022-10-19T19:06:25.428Z,7.32
2022-10-19T19:09:29.308Z,6.97
2022-10-19T19:12:32.221Z,7.18
2022-10-19T19:15:34.790Z,6.80
2022-10-19T19:18:37.509Z,6.30
2022-10-19T19:21:43.650Z,5.63
2022-10-19T19:24:50.329Z,5.60
2022-10-19T19:27:52.912Z,8.20
2022-10-19T19:30:55.479Z,6.50
2022-10-19T19:34:01.022Z,5.53
2022-10-19T19:37:07.316Z,6.25
2022-10-19T19:40:14.465Z,5.72
2022-10-19T19:43:17.716Z,6.07
2022-10-19T19:46:20.763Z,6.97
2022-10-19T19:49:24.975Z,5.90
2022-10-19T19:52:27.556Z,5.95
2022-10-19T19:55:38.886Z,5.60
2022-10-19T19:58:42.788Z,5.85
2022-10-19T20:01:45.624Z,5.15
2022-10-19T20:04:48.625Z,6.67
2022-10-19T20:07:51.686Z,9.60
2022-10-19T20:10:55.731Z,10.82
2022-10-19T20:13:59.189Z,8.65
2022-10-19T20:17:01.896Z,8.70
2022-10-19T20:20:05.325Z,8.30
2022-10-19T20:23:08.062Z,9.15
2022-10-19T20:26:16.944Z,8.98
2022-10-19T20:29:20.225Z,6.70
2022-10-19T20:32:22.890Z,6.60
2022-10-19T20:35:25.452Z,6.70
2022-10-19T20:38:28.124Z,6.53
2022-10-19T20:41:32.080Z,6.97
2022-10-19T20:44:34.861Z,7.07
2022-10-19T20:47:37.561Z,6.95
2022-10-19T20:50:40.494Z,6.33
2022-10-19T20:53:43.725Z,5.70
2022-10-19T20:56:48.072Z,6.25
2022-10-19T20:59:50.829Z,6.78
2022-10-19T21:02:53.792Z,6.60
2022-10-19T21:05:56.460Z,6.70
2022-10-19T21:08:59.944Z,6.03
2022-10-19T21:12:04.033Z,6.50
2022-10-19T21:15:07.562Z,7.50
2022-10-19T21:18:10.202Z,7.65
2022-10-19T21:21:16.406Z,7.43
2022-10-19T21:24:21.013Z,8.88
2022-10-19T21:27:25.023Z,7.57
2022-10-19T21:30:28.112Z,6.85
2022-10-19T21:33:30.795Z,7.95
2022-10-19T21:36:33.651Z,7.40
2022-10-19T21:39:36.476Z,7.18
2022-10-19T21:42:40.482Z,8.32
2022-10-19T21:45:43.118Z,8.25
2022-10-19T21:48:46.243Z,9.03
2022-10-19T21:51:50.939Z,8.27
2022-10-19T21:54:54.544Z,8.93
2022-10-19T21:57:58.674Z,7.68
2022-10-19T22:01:05.232Z,7.50
2022-10-19T22:04:10.610Z,7.73
2022-10-19T22:07:13.228Z,8.30
2022-10-19T22:10:15.969Z,9.63
2022-10-19T22:13:19.885Z,7.57
2022-10-19T22:16:23.604Z,9.38
2022-10-19T22:19:26.505Z,8.13
2022-10-19T22:22:29.205Z,7.07
2022-10-19T22:25:32.376Z,7.28
2022-10-19T22:28:36.431Z,7.07
2022-10-19T22:31:39.407Z,7.28
2022-10-19T22:34:41.981Z,7.30
2022-10-19T22:37:44.712Z,6.43
2022-10-19T22:40:47.414Z,7.38
2022-10-19T22:43:51.391Z,6.85
2022-10-19T22:46:54.156Z,6.78
2022-10-19T22:49:56.757Z,6.20
2022-10-19T22:52:59.383Z,8.63
2022-10-19T22:56:02.333Z,6.28
2022-10-19T22:59:08.024Z,6.28
2022-10-19T23:02:10.988Z,6.00
2022-10-19T23:05:13.800Z,7.43
2022-10-19T23:08:16.576Z,7.90
2022-10-19T23:11:19.303Z,6.57
2022-10-19T23:14:23.544Z,7.28
2022-10-19T23:17:26.212Z,6.72
2022-10-19T23:20:29.158Z,7.73
2022-10-19T23:23:33.141Z,6.03
2022-10-19T23:26:35.846Z,7.75
2022-10-19T23:29:40.341Z,6.22
2022-10-19T23:32:43.105Z,6.18
2022-10-19T23:35:45.858Z,6.17
2022-10-19T23:38:50.166Z,6.03
2022-10-19T23:41:52.951Z,6.22
2022-10-19T23:44:57.078Z,6.43
2022-10-19T23:47:59.918Z,8.02
2022-10-19T23:51:04.922Z,7.50
2022-10-19T23:54:07.663Z,7.90
2022-10-19T23:57:10.371Z,7.22
